createdAt,value
2018-05-08T00:00:32.536Z,14.43
2018-05-08T00:01:32.535Z,14.48
2018-05-08T00:02:32.536Z,14.43
2018-05-08T00:03:32.538Z,14.40
2018-05-08T00:04:32.538Z,14.33
2018-05-08T00:05:32.540Z,14.33
2018-05-08T00:06:32.540Z,14.30
2018-05-08T00:07:32.541Z,14.22
2018-05-08T00:08:32.541Z,14.15
2018-05-08T00:09:32.542Z,14.08
2018-05-08T00:10:32.541Z,13.93
2018-05-08T00:11:32.542Z,13.86
2018-05-08T00:12:32.543Z,13.82
2018-05-08T00:13:32.544Z,13.79
2018-05-08T00:14:32.545Z,13.76
2018-05-08T00:15:32.545Z,13.75
2018-05-08T00:16:32.548Z,13.71
2018-05-08T00:17:32.546Z,13.67
2018-05-08T00:18:32.547Z,13.73
2018-05-08T00:19:32.548Z,13.64
2018-05-08T00:20:32.549Z,13.73
2018-05-08T00:21:32.549Z,13.76
2018-05-08T00:22:32.549Z,13.73
2018-05-08T00:23:32.550Z,13.78
2018-05-08T00:24:32.551Z,13.71
2018-05-08T00:26:32.555Z,13.67
2018-05-08T00:27:32.553Z,13.67
2018-05-08T00:28:32.556Z,13.64
2018-05-08T00:29:32.554Z,13.57
2018-05-08T00:30:32.554Z,13.55
2018-05-08T00:31:32.554Z,13.50
2018-05-08T00:32:32.556Z,13.52
2018-05-08T00:33:32.553Z,13.49
2018-05-08T00:34:32.556Z,13.54
2018-05-08T00:35:32.556Z,13.43
2018-05-08T00:36:32.556Z,13.49
2018-05-08T00:37:32.557Z,13.60
2018-05-08T00:38:32.556Z,13.58
2018-05-08T00:39:32.561Z,13.60
2018-05-08T00:40:32.557Z,13.61
2018-05-08T00:41:32.559Z,13.68
2018-05-08T00:42:32.559Z,13.70
2018-05-08T00:43:32.559Z,13.85
2018-05-08T00:44:32.560Z,13.85
2018-05-08T00:45:32.560Z,13.89
2018-05-08T00:46:32.562Z,13.95
2018-05-08T00:47:32.559Z,14.05
2018-05-08T00:48:32.568Z,14.00
2018-05-08T00:49:32.562Z,14.16
2018-05-08T00:50:32.562Z,14.11
2018-05-08T00:51:32.562Z,14.16
2018-05-08T00:52:32.562Z,14.20
2018-05-08T00:53:32.560Z,14.11
2018-05-08T00:54:32.562Z,14.04
2018-05-08T00:55:32.562Z,14.08
2018-05-08T00:56:32.564Z,14.03
2018-05-08T00:57:32.565Z,14.08
2018-05-08T00:58:32.563Z,14.00
2018-05-08T00:59:32.564Z,13.95
2018-05-08T01:00:32.565Z,13.82
2018-05-08T01:01:32.565Z,13.85
2018-05-08T01:02:32.566Z,13.86
2018-05-08T01:03:32.565Z,13.82
2018-05-08T01:04:32.566Z,13.79
2018-05-08T01:05:32.565Z,13.79
2018-05-08T01:06:32.866Z,13.76
2018-05-08T01:07:32.566Z,13.60
2018-05-08T01:08:32.569Z,13.54
2018-05-08T01:09:32.567Z,13.57
2018-05-08T01:10:32.567Z,13.46
2018-05-08T01:11:32.602Z,13.47
2018-05-08T01:12:32.569Z,13.43
2018-05-08T01:13:32.568Z,13.30
2018-05-08T01:14:32.570Z,13.39
2018-05-08T01:15:32.570Z,13.21
2018-05-08T01:16:32.571Z,13.28
2018-05-08T01:17:32.570Z,13.20
2018-05-08T01:18:32.570Z,13.23
2018-05-08T01:19:32.571Z,13.24
2018-05-08T01:20:32.571Z,13.27
2018-05-08T01:21:32.574Z,13.21
2018-05-08T01:22:32.571Z,13.20
2018-05-08T01:23:32.570Z,13.26
2018-05-08T01:24:32.571Z,13.30
2018-05-08T01:25:32.570Z,13.27
2018-05-08T01:26:32.571Z,13.20
2018-05-08T01:27:32.573Z,13.21
2018-05-08T01:28:32.571Z,13.21
2018-05-08T01:29:32.572Z,13.05
2018-05-08T01:30:32.572Z,13.08
2018-05-08T01:31:32.578Z,13.05
2018-05-08T01:32:32.572Z,13.03
2018-05-08T01:33:32.571Z,13.03
2018-05-08T01:34:32.572Z,13.11
2018-05-08T01:35:32.573Z,13.16
2018-05-08T01:36:32.573Z,13.12
2018-05-08T01:37:32.571Z,13.17
2018-05-08T01:38:32.571Z,13.09
2018-05-08T01:39:32.571Z,13.17
2018-05-08T01:40:32.571Z,13.09
2018-05-08T01:41:32.572Z,13.03
2018-05-08T01:42:32.572Z,13.05
2018-05-08T01:43:32.570Z,13.01
2018-05-08T01:44:32.571Z,12.87
2018-05-08T01:45:32.572Z,12.86
2018-05-08T01:46:32.572Z,12.95
2018-05-08T01:47:32.571Z,12.91
2018-05-08T01:48:32.572Z,13.01
2018-05-08T01:49:32.571Z,12.93
2018-05-08T01:50:32.646Z,12.99
2018-05-08T01:51:32.576Z,12.98
2018-05-08T01:52:32.572Z,13.02
2018-05-08T01:53:32.572Z,13.05
2018-05-08T01:54:32.571Z,13.05
2018-05-08T01:55:32.572Z,13.17
2018-05-08T01:56:32.574Z,13.16
2018-05-08T01:57:32.571Z,13.17
2018-05-08T01:58:32.570Z,13.16
2018-05-08T01:59:32.571Z,13.12
2018-05-08T02:00:32.570Z,13.21
2018-05-08T02:01:32.629Z,13.28
2018-05-08T02:02:32.571Z,13.27
2018-05-08T02:03:32.570Z,13.31
2018-05-08T02:04:32.570Z,13.26
2018-05-08T02:05:32.571Z,13.26
2018-05-08T02:06:32.570Z,13.30
2018-05-08T02:07:32.570Z,13.42
2018-05-08T02:08:32.576Z,13.30
2018-05-08T02:09:32.569Z,13.31
2018-05-08T02:10:32.571Z,13.30
2018-05-08T02:11:32.570Z,13.33
2018-05-08T02:12:32.569Z,13.26
2018-05-08T02:13:32.569Z,13.30
2018-05-08T02:14:32.570Z,13.26
2018-05-08T02:15:32.569Z,13.19
2018-05-08T02:16:32.569Z,13.13
2018-05-08T02:17:32.569Z,13.09
2018-05-08T02:18:32.569Z,13.03
2018-05-08T02:19:32.570Z,12.91
2018-05-08T02:20:32.569Z,12.91
2018-05-08T02:21:32.567Z,12.87
2018-05-08T02:22:32.567Z,12.93
2018-05-08T02:23:32.580Z,12.75
2018-05-08T02:24:32.568Z,12.68
2018-05-08T02:25:32.567Z,12.68
2018-05-08T02:26:32.568Z,12.62
2018-05-08T02:27:32.567Z,12.51
2018-05-08T02:28:32.567Z,12.37
2018-05-08T02:29:32.566Z,12.47
2018-05-08T02:30:32.565Z,12.43
2018-05-08T02:31:32.567Z,12.54
2018-05-08T02:32:32.564Z,12.47
2018-05-08T02:33:32.570Z,12.45
2018-05-08T02:34:32.568Z,12.43
2018-05-08T02:35:32.565Z,12.45
2018-05-08T02:36:32.565Z,12.44
2018-05-08T02:37:32.571Z,12.36
2018-05-08T02:38:32.576Z,12.33
2018-05-08T02:39:32.564Z,12.36
2018-05-08T02:40:32.568Z,12.44
2018-05-08T02:41:32.563Z,12.36
2018-05-08T02:42:32.562Z,12.37
2018-05-08T02:43:32.562Z,12.40
2018-05-08T02:44:32.562Z,12.43
2018-05-08T02:45:32.561Z,12.54
2018-05-08T02:46:32.561Z,12.53
2018-05-08T02:47:32.561Z,12.50
2018-05-08T02:48:32.567Z,12.37
2018-05-08T02:49:32.557Z,12.29
2018-05-08T02:50:32.558Z,12.32
2018-05-08T02:51:32.563Z,12.28
2018-05-08T02:52:32.577Z,12.37
2018-05-08T02:53:32.557Z,12.30
2018-05-08T02:54:32.555Z,12.32
2018-05-08T02:55:32.560Z,12.36
2018-05-08T02:56:32.555Z,12.29
2018-05-08T02:57:32.555Z,12.29
2018-05-08T02:58:32.554Z,12.30
2018-05-08T02:59:32.555Z,12.32
2018-05-08T03:00:32.555Z,12.32
2018-05-08T03:01:32.553Z,12.25
2018-05-08T03:02:32.553Z,12.32
2018-05-08T03:03:32.553Z,12.26
2018-05-08T03:04:32.553Z,12.30
2018-05-08T03:05:32.551Z,12.30
2018-05-08T03:06:32.553Z,12.29
2018-05-08T03:07:32.550Z,12.29
2018-05-08T03:08:32.550Z,12.17
2018-05-08T03:09:32.549Z,12.18
2018-05-08T03:10:32.549Z,12.29
2018-05-08T03:11:32.548Z,12.29
2018-05-08T03:12:32.549Z,12.08
2018-05-08T03:13:32.546Z,12.11
2018-05-08T03:14:32.545Z,12.05
2018-05-08T03:15:32.545Z,12.11
2018-05-08T03:16:32.546Z,12.14
2018-05-08T03:17:32.543Z,12.03
2018-05-08T03:18:32.544Z,12.08
2018-05-08T03:19:32.543Z,12.08
2018-05-08T03:20:32.543Z,12.07
2018-05-08T03:21:32.542Z,12.03
2018-05-08T03:22:32.541Z,12.02
2018-05-08T03:23:32.540Z,12.02
2018-05-08T03:24:32.541Z,12.05
2018-05-08T03:25:32.540Z,12.03
2018-05-08T03:26:32.538Z,12.02
2018-05-08T03:27:32.538Z,12.05
2018-05-08T03:28:32.540Z,12.10
2018-05-08T03:29:32.536Z,12.08
2018-05-08T03:30:32.536Z,12.03
2018-05-08T03:31:32.536Z,12.00
2018-05-08T03:32:32.536Z,11.95
2018-05-08T03:33:32.534Z,11.93
2018-05-08T03:34:32.535Z,11.93
2018-05-08T03:35:32.532Z,11.97
2018-05-08T03:36:32.532Z,12.02
2018-05-08T03:37:32.531Z,12.02
2018-05-08T03:38:32.531Z,12.07
2018-05-08T03:39:32.530Z,12.07
2018-05-08T03:40:32.529Z,12.02
2018-05-08T03:41:32.536Z,12.07
2018-05-08T03:42:32.527Z,12.02
2018-05-08T03:43:32.526Z,11.96
2018-05-08T03:44:32.526Z,12.02
2018-05-08T03:45:32.525Z,12.02
2018-05-08T03:46:32.526Z,11.91
2018-05-08T03:47:32.524Z,11.88
2018-05-08T03:48:32.528Z,11.88
2018-05-08T03:49:32.523Z,11.81
2018-05-08T03:50:32.521Z,11.83
2018-05-08T03:51:32.520Z,11.83
2018-05-08T03:52:32.524Z,11.85
2018-05-08T03:53:32.519Z,11.85
2018-05-08T03:54:32.518Z,11.77
2018-05-08T03:55:32.518Z,11.76
2018-05-08T03:56:32.518Z,11.71
2018-05-08T03:57:32.517Z,11.74
2018-05-08T03:58:32.516Z,11.65
2018-05-08T03:59:32.514Z,11.67
2018-05-08T04:00:32.513Z,11.58
2018-05-08T04:01:32.512Z,11.59
2018-05-08T04:02:32.512Z,11.56
2018-05-08T04:03:32.511Z,11.56
2018-05-08T04:04:32.517Z,11.49
2018-05-08T04:05:32.510Z,11.45
2018-05-08T04:06:32.508Z,11.53
2018-05-08T04:07:32.507Z,11.58
2018-05-08T04:08:32.508Z,11.53
2018-05-08T04:09:32.506Z,11.45
2018-05-08T04:10:32.505Z,11.53
2018-05-08T04:11:32.506Z,11.56
2018-05-08T04:12:32.503Z,11.59
2018-05-08T04:13:32.502Z,11.60
2018-05-08T04:14:32.500Z,11.65
2018-05-08T04:15:32.571Z,11.68
2018-05-08T04:16:32.500Z,11.59
2018-05-08T04:17:32.499Z,11.63
2018-05-08T04:18:32.499Z,11.76
2018-05-08T04:19:32.497Z,11.71
2018-05-08T04:20:32.497Z,11.74
2018-05-08T04:21:32.499Z,11.74
2018-05-08T04:22:32.497Z,11.78
2018-05-08T04:23:32.495Z,11.77
2018-05-08T04:24:32.494Z,11.70
2018-05-08T04:25:32.492Z,11.73
2018-05-08T04:26:32.492Z,11.73
2018-05-08T04:27:32.491Z,11.76
2018-05-08T04:28:32.489Z,11.76
2018-05-08T04:29:32.488Z,11.78
2018-05-08T04:30:32.487Z,11.74
2018-05-08T04:31:32.488Z,11.70
2018-05-08T04:32:32.485Z,11.71
2018-05-08T04:33:32.484Z,11.73
2018-05-08T04:34:32.484Z,11.78
2018-05-08T04:35:32.483Z,11.81
2018-05-08T04:36:32.500Z,11.85
2018-05-08T04:37:32.481Z,11.91
2018-05-08T04:38:32.480Z,11.89
2018-05-08T04:39:32.484Z,11.89
2018-05-08T04:40:32.479Z,11.95
2018-05-08T04:41:32.478Z,11.88
2018-05-08T04:42:32.476Z,11.95
2018-05-08T04:43:32.477Z,11.93
2018-05-08T04:44:32.475Z,11.89
2018-05-08T04:45:32.475Z,11.88
2018-05-08T04:46:32.473Z,11.89
2018-05-08T04:47:32.476Z,11.95
2018-05-08T04:48:32.472Z,12.00
2018-05-08T04:49:32.472Z,12.08
2018-05-08T04:50:32.471Z,12.03
2018-05-08T04:51:32.471Z,12.05
2018-05-08T04:52:32.471Z,12.10
2018-05-08T04:53:32.469Z,12.08
2018-05-08T04:54:32.478Z,12.12
2018-05-08T04:55:32.467Z,12.21
2018-05-08T04:56:32.467Z,12.17
2018-05-08T04:57:32.465Z,12.17
2018-05-08T04:58:32.464Z,12.15
2018-05-08T04:59:32.465Z,12.26
2018-05-08T05:00:32.464Z,12.25
2018-05-08T05:01:32.462Z,12.39
2018-05-08T05:02:32.463Z,12.43
2018-05-08T05:03:32.462Z,12.37
2018-05-08T05:04:32.461Z,12.32
2018-05-08T05:05:32.461Z,12.37
2018-05-08T05:06:32.459Z,12.54
2018-05-08T05:07:32.459Z,12.50
2018-05-08T05:08:32.460Z,12.54
2018-05-08T05:09:32.459Z,12.57
2018-05-08T05:10:32.457Z,12.65
2018-05-08T05:11:32.457Z,12.61
2018-05-08T05:12:32.457Z,12.63
2018-05-08T05:13:32.455Z,12.62
2018-05-08T05:14:32.456Z,12.68
2018-05-08T05:15:32.455Z,12.76
2018-05-08T05:16:32.455Z,12.81
2018-05-08T05:17:32.453Z,12.80
2018-05-08T05:18:32.455Z,12.93
2018-05-08T05:19:32.454Z,12.84
2018-05-08T05:20:32.454Z,12.99
2018-05-08T05:21:32.453Z,13.01
2018-05-08T05:22:32.454Z,13.03
2018-05-08T05:23:32.453Z,13.05
2018-05-08T05:24:32.467Z,13.16
2018-05-08T05:25:32.459Z,13.21
2018-05-08T05:26:32.452Z,13.24
2018-05-08T05:27:32.453Z,13.27
2018-05-08T05:28:32.453Z,13.27
2018-05-08T05:29:32.459Z,13.27
2018-05-08T05:30:32.451Z,13.40
2018-05-08T05:31:32.466Z,13.36
2018-05-08T05:32:32.452Z,13.52
2018-05-08T05:33:32.451Z,13.50
2018-05-08T05:34:32.451Z,13.54
2018-05-08T05:35:32.452Z,13.45
2018-05-08T05:36:32.452Z,13.45
2018-05-08T05:37:32.454Z,13.40
2018-05-08T05:38:32.451Z,13.46
2018-05-08T05:39:32.451Z,13.43
2018-05-08T05:40:32.452Z,13.40
2018-05-08T05:41:32.451Z,13.33
2018-05-08T05:42:32.455Z,13.26
2018-05-08T05:43:32.452Z,13.11
2018-05-08T05:44:32.452Z,13.19
2018-05-08T05:45:32.454Z,13.19
2018-05-08T05:46:32.451Z,13.20
2018-05-08T05:47:32.453Z,13.39
2018-05-08T05:48:32.453Z,13.27
2018-05-08T05:49:32.452Z,13.43
2018-05-08T05:50:32.453Z,13.46
2018-05-08T05:51:32.460Z,13.49
2018-05-08T05:52:32.452Z,13.47
2018-05-08T05:53:32.453Z,13.60
2018-05-08T05:54:32.451Z,13.52
2018-05-08T05:55:32.454Z,13.58
2018-05-08T05:56:32.455Z,13.62
2018-05-08T05:57:32.453Z,13.67
2018-05-08T05:58:32.506Z,13.70
2018-05-08T05:59:32.482Z,13.64
2018-05-08T06:00:32.502Z,13.57
2018-05-08T06:01:32.542Z,13.43
2018-05-08T06:02:32.455Z,13.30
2018-05-08T06:03:32.455Z,13.37
2018-05-08T06:04:32.461Z,13.46
2018-05-08T06:05:32.454Z,13.39
2018-05-08T06:06:32.550Z,13.43
2018-05-08T06:07:32.455Z,13.52
2018-05-08T06:08:32.456Z,13.61
2018-05-08T06:09:32.454Z,13.76
2018-05-08T06:10:32.456Z,13.79
2018-05-08T06:11:32.477Z,13.98
2018-05-08T06:12:32.458Z,14.00
2018-05-08T06:13:32.456Z,14.11
2018-05-08T06:14:32.457Z,14.13
2018-05-08T06:15:32.457Z,14.15
2018-05-08T06:16:32.458Z,14.16
2018-05-08T06:17:32.462Z,14.19
2018-05-08T06:18:32.458Z,14.33
2018-05-08T06:19:32.460Z,14.36
2018-05-08T06:20:32.459Z,14.36
2018-05-08T06:21:32.460Z,14.33
2018-05-08T06:22:32.461Z,14.53
2018-05-08T06:23:32.462Z,14.62
2018-05-08T06:24:32.462Z,14.78
2018-05-08T06:25:32.462Z,14.82
2018-05-08T06:26:32.472Z,14.78
2018-05-08T06:27:32.468Z,14.79
2018-05-08T06:28:32.762Z,14.92
2018-05-08T06:29:32.466Z,15.02
2018-05-08T06:30:32.840Z,14.93
2018-05-08T06:31:32.468Z,14.81
2018-05-08T06:32:32.469Z,14.56
2018-05-08T06:33:32.469Z,14.44
2018-05-08T06:34:32.471Z,14.41
2018-05-08T06:35:32.470Z,14.44
2018-05-08T06:36:32.473Z,14.43
2018-05-08T06:37:32.472Z,14.56
2018-05-08T06:38:32.475Z,14.71
2018-05-08T06:39:32.550Z,14.77
2018-05-08T06:40:32.476Z,14.82
2018-05-08T06:41:32.480Z,14.97
2018-05-08T06:42:32.477Z,15.07
2018-05-08T06:43:32.478Z,15.17
2018-05-08T06:44:32.481Z,15.19
2018-05-08T06:45:32.605Z,15.29
2018-05-08T06:46:32.498Z,15.47
2018-05-08T06:47:32.486Z,15.39
2018-05-08T06:48:32.485Z,15.55
2018-05-08T06:49:32.754Z,15.70
2018-05-08T06:50:32.602Z,15.78
2018-05-08T06:51:32.488Z,15.84
2018-05-08T06:52:32.491Z,15.91
2018-05-08T06:53:32.491Z,15.98
2018-05-08T06:54:32.493Z,16.08
2018-05-08T06:55:32.495Z,16.00
2018-05-08T06:56:32.495Z,15.99
2018-05-08T06:57:32.500Z,16.02
2018-05-08T06:58:32.499Z,16.02
2018-05-08T06:59:32.502Z,15.98
2018-05-08T07:00:32.506Z,16.09
2018-05-08T07:01:32.505Z,16.37
2018-05-08T07:02:32.507Z,16.95
2018-05-08T07:03:32.513Z,17.93
2018-05-08T07:04:32.517Z,18.66
2018-05-08T07:05:32.552Z,18.96
2018-05-08T07:06:32.617Z,19.05
2018-05-08T07:07:32.534Z,19.30
2018-05-08T07:08:32.540Z,19.67
2018-05-08T07:09:32.549Z,20.17
2018-05-08T07:10:32.606Z,20.63
2018-05-08T07:11:32.564Z,20.71
2018-05-08T07:12:32.569Z,20.75
2018-05-08T07:13:32.578Z,21.11
2018-05-08T07:14:32.585Z,21.32
2018-05-08T07:15:32.593Z,21.56
2018-05-08T07:16:32.602Z,21.58
2018-05-08T07:17:32.607Z,21.38
2018-05-08T07:18:32.617Z,21.07
2018-05-08T07:19:32.621Z,20.36
2018-05-08T07:20:32.629Z,20.03
2018-05-08T07:21:32.634Z,19.79
2018-05-08T07:22:32.641Z,19.67
2018-05-08T07:23:32.647Z,19.56
2018-05-08T07:24:32.653Z,19.67
2018-05-08T07:25:32.660Z,19.64
2018-05-08T07:26:32.665Z,19.74
2018-05-08T07:27:32.857Z,19.74
2018-05-08T07:28:32.749Z,19.79
2018-05-08T07:29:32.684Z,19.78
2018-05-08T07:30:32.690Z,19.90
2018-05-08T07:31:32.699Z,19.77
2018-05-08T07:32:32.703Z,19.77
2018-05-08T07:33:32.708Z,19.64
2018-05-08T07:34:32.714Z,19.63
2018-05-08T07:35:32.882Z,19.74
2018-05-08T07:36:32.734Z,19.64
2018-05-08T07:37:32.733Z,19.59
2018-05-08T07:38:32.743Z,19.67
2018-05-08T07:39:32.747Z,19.90
2018-05-08T07:40:32.754Z,19.97
2018-05-08T07:41:32.914Z,19.96
2018-05-08T07:42:32.764Z,19.93
2018-05-08T07:43:32.769Z,19.82
2018-05-08T07:44:32.776Z,19.92
2018-05-08T07:45:32.928Z,19.89
2018-05-08T07:46:32.788Z,19.81
2018-05-08T07:47:32.793Z,19.77
2018-05-08T07:48:32.993Z,19.81
2018-05-08T07:49:33.263Z,19.74
2018-05-08T07:50:33.053Z,20.00
2018-05-08T07:51:33.071Z,20.17
2018-05-08T07:52:32.824Z,20.26
2018-05-08T07:53:32.831Z,20.53
2018-05-08T07:54:32.920Z,20.73
2018-05-08T07:55:32.846Z,20.86
2018-05-08T07:56:32.853Z,21.05
2018-05-08T07:57:32.949Z,21.35
2018-05-08T07:58:32.870Z,21.63
2018-05-08T07:59:33.294Z,21.84
2018-05-08T08:00:32.888Z,21.89
2018-05-08T08:01:32.894Z,21.99
2018-05-08T08:02:32.904Z,22.30
2018-05-08T08:03:32.916Z,22.52
2018-05-08T08:04:32.998Z,22.77
2018-05-08T08:05:32.936Z,22.96
2018-05-08T08:06:32.948Z,23.17
2018-05-08T08:07:32.964Z,23.47
2018-05-08T08:08:32.972Z,23.67
2018-05-08T08:09:32.985Z,23.84
2018-05-08T08:10:32.996Z,23.44
2018-05-08T08:11:33.019Z,23.04
2018-05-08T08:12:33.021Z,22.51
2018-05-08T08:13:33.032Z,22.52
2018-05-08T08:14:33.046Z,22.81
2018-05-08T08:15:33.359Z,22.51
2018-05-08T08:16:33.151Z,22.33
2018-05-08T08:17:33.091Z,22.38
2018-05-08T08:18:33.115Z,22.46
2018-05-08T08:19:33.476Z,22.53
2018-05-08T08:20:33.122Z,22.56
2018-05-08T08:21:33.133Z,22.84
2018-05-08T08:22:33.143Z,22.62
2018-05-08T08:23:33.166Z,22.23
2018-05-08T08:24:33.172Z,22.61
2018-05-08T08:25:33.178Z,22.78
2018-05-08T08:26:33.190Z,22.96
2018-05-08T08:27:33.203Z,23.13
2018-05-08T08:28:33.214Z,23.47
2018-05-08T08:29:33.225Z,23.55
2018-05-08T08:30:33.238Z,23.71
2018-05-08T08:31:33.251Z,23.88
2018-05-08T08:32:33.264Z,24.13
2018-05-08T08:33:33.564Z,24.53
2018-05-08T08:34:33.290Z,24.75
2018-05-08T08:35:33.306Z,25.06
2018-05-08T08:36:33.318Z,25.25
2018-05-08T08:37:33.331Z,25.55
2018-05-08T08:38:33.346Z,25.86
2018-05-08T08:39:33.361Z,25.77
2018-05-08T08:40:33.375Z,25.68
2018-05-08T08:41:33.389Z,25.62
2018-05-08T08:42:33.405Z,25.80
2018-05-08T08:43:33.425Z,26.03
2018-05-08T08:44:33.435Z,26.24
2018-05-08T08:45:33.450Z,26.45
2018-05-08T08:46:33.521Z,26.24
2018-05-08T08:47:33.486Z,25.81
2018-05-08T08:48:33.496Z,25.99
2018-05-08T08:49:33.513Z,26.11
2018-05-08T08:50:33.528Z,25.89
2018-05-08T08:51:33.543Z,25.00
2018-05-08T08:52:33.559Z,24.16
2018-05-08T08:53:33.574Z,23.94
2018-05-08T08:54:33.590Z,23.67
2018-05-08T08:55:33.609Z,23.62
2018-05-08T08:56:33.624Z,23.84
2018-05-08T08:57:33.638Z,24.16
2018-05-08T08:58:33.654Z,24.58
2018-05-08T08:59:33.670Z,24.53
2018-05-08T09:00:33.685Z,25.00
2018-05-08T09:01:33.698Z,25.30
2018-05-08T09:02:33.715Z,25.43
2018-05-08T09:03:33.729Z,24.74
2018-05-08T09:04:33.746Z,24.19
2018-05-08T09:05:33.768Z,23.77
2018-05-08T09:06:33.775Z,23.42
2018-05-08T09:07:33.791Z,23.40
2018-05-08T09:08:33.807Z,23.47
2018-05-08T09:09:33.821Z,23.71
2018-05-08T09:10:33.836Z,23.44
2018-05-08T09:11:33.879Z,23.33
2018-05-08T09:12:33.866Z,23.58
2018-05-08T09:13:33.892Z,23.89
2018-05-08T09:14:33.896Z,24.01
2018-05-08T09:15:33.910Z,24.04
2018-05-08T09:16:33.926Z,24.14
2018-05-08T09:17:33.939Z,24.31
2018-05-08T09:18:33.955Z,24.69
2018-05-08T09:19:33.971Z,24.71
2018-05-08T09:20:34.255Z,24.10
2018-05-08T09:21:33.998Z,23.74
2018-05-08T09:22:34.462Z,23.47
2018-05-08T09:23:34.303Z,23.62
2018-05-08T09:24:34.550Z,23.64
2018-05-08T09:25:34.065Z,23.70
2018-05-08T09:26:34.071Z,23.58
2018-05-08T09:27:34.098Z,23.37
2018-05-08T09:28:34.101Z,23.34
2018-05-08T09:29:34.113Z,23.84
2018-05-08T09:30:34.309Z,24.43
2018-05-08T09:31:34.145Z,24.86
2018-05-08T09:32:34.159Z,24.77
2018-05-08T09:33:34.170Z,24.65
2018-05-08T09:34:34.183Z,24.09
2018-05-08T09:35:34.274Z,24.32
2018-05-08T09:36:34.214Z,24.53
2018-05-08T09:37:34.227Z,24.86
2018-05-08T09:38:34.240Z,24.36
2018-05-08T09:39:34.255Z,23.92
2018-05-08T09:40:34.517Z,23.21
2018-05-08T09:41:34.282Z,23.13
2018-05-08T09:42:34.296Z,23.20
2018-05-08T09:43:34.314Z,23.52
2018-05-08T09:44:34.324Z,23.95
2018-05-08T09:45:34.610Z,24.58
2018-05-08T09:46:34.855Z,24.66
2018-05-08T09:47:34.366Z,24.97
2018-05-08T09:48:34.380Z,24.79
2018-05-08T09:49:34.403Z,24.63
2018-05-08T09:50:34.406Z,24.58
2018-05-08T09:51:34.420Z,24.66
2018-05-08T09:52:34.435Z,24.96
2018-05-08T09:53:34.449Z,24.75
2018-05-08T09:54:34.492Z,24.59
2018-05-08T09:55:34.475Z,24.62
2018-05-08T09:56:34.490Z,24.58
2018-05-08T09:57:34.502Z,24.74
2018-05-08T09:58:34.831Z,25.04
2018-05-08T09:59:34.797Z,25.54
2018-05-08T10:00:34.811Z,25.70
2018-05-08T10:01:34.831Z,25.98
2018-05-08T10:02:34.570Z,26.22
2018-05-08T10:03:34.608Z,26.49
2018-05-08T10:04:34.597Z,26.45
2018-05-08T10:05:34.700Z,26.19
2018-05-08T10:06:34.723Z,26.10
2018-05-08T10:07:34.642Z,26.22
2018-05-08T10:08:34.654Z,25.96
2018-05-08T10:09:34.669Z,25.70
2018-05-08T10:10:34.680Z,25.55
2018-05-08T10:11:34.694Z,25.30
2018-05-08T10:12:34.708Z,25.16
2018-05-08T10:13:34.722Z,25.54
2018-05-08T10:14:34.738Z,26.01
2018-05-08T10:15:34.749Z,26.45
2018-05-08T10:16:34.768Z,26.64
2018-05-08T10:17:34.777Z,26.48
2018-05-08T10:18:34.790Z,26.34
2018-05-08T10:19:34.803Z,26.42
2018-05-08T10:20:34.873Z,26.66
2018-05-08T10:21:34.831Z,26.74
2018-05-08T10:22:34.845Z,26.86
2018-05-08T10:23:34.859Z,26.31
2018-05-08T10:24:34.872Z,26.08
2018-05-08T10:25:34.885Z,26.10
2018-05-08T10:26:34.899Z,26.10
2018-05-08T10:27:34.915Z,25.77
2018-05-08T10:28:34.927Z,25.71
2018-05-08T10:29:34.941Z,25.67
2018-05-08T10:30:34.955Z,25.81
2018-05-08T10:31:34.968Z,25.56
2018-05-08T10:32:34.981Z,25.12
2018-05-08T10:33:34.994Z,24.89
2018-05-08T10:34:35.008Z,24.99
2018-05-08T10:35:35.024Z,25.31
2018-05-08T10:36:35.035Z,25.56
2018-05-08T10:37:35.047Z,25.25
2018-05-08T10:38:35.060Z,24.63
2018-05-08T10:39:35.073Z,24.68
2018-05-08T10:40:35.157Z,24.56
2018-05-08T10:41:35.099Z,24.56
2018-05-08T10:42:35.111Z,24.58
2018-05-08T10:43:35.125Z,24.99
2018-05-08T10:44:35.137Z,25.11
2018-05-08T10:45:35.153Z,25.30
2018-05-08T10:46:35.162Z,25.41
2018-05-08T10:47:35.472Z,25.07
2018-05-08T10:48:35.482Z,24.86
2018-05-08T10:49:35.505Z,24.86
2018-05-08T10:50:35.481Z,25.31
2018-05-08T10:51:35.225Z,25.70
2018-05-08T10:52:35.240Z,26.29
2018-05-08T10:53:35.576Z,26.74
2018-05-08T10:54:35.495Z,27.11
2018-05-08T10:55:35.283Z,27.41
2018-05-08T10:56:35.288Z,27.66
2018-05-08T10:57:35.307Z,27.26
2018-05-08T10:58:35.355Z,26.41
2018-05-08T10:59:35.346Z,25.89
2018-05-08T11:00:35.339Z,25.41
2018-05-08T11:01:35.423Z,25.44
2018-05-08T11:02:35.376Z,25.55
2018-05-08T11:03:35.378Z,25.67
2018-05-08T11:04:35.449Z,25.58
2018-05-08T11:05:35.438Z,25.46
2018-05-08T11:06:35.414Z,25.58
2018-05-08T11:07:35.426Z,25.86
2018-05-08T11:08:35.439Z,26.13
2018-05-08T11:09:35.452Z,26.13
2018-05-08T11:10:35.468Z,26.10
2018-05-08T11:11:35.478Z,26.44
2018-05-08T11:12:35.496Z,26.70
2018-05-08T11:13:35.504Z,27.10
2018-05-08T11:14:35.516Z,27.01
2018-05-08T11:15:35.529Z,26.89
2018-05-08T11:16:35.553Z,26.91
2018-05-08T11:17:35.555Z,26.93
2018-05-08T11:18:35.566Z,27.03
2018-05-08T11:19:35.608Z,27.05
2018-05-08T11:20:35.590Z,27.10
2018-05-08T11:21:35.607Z,27.29
2018-05-08T11:22:36.240Z,26.71
2018-05-08T11:23:35.629Z,26.66
2018-05-08T11:24:35.642Z,26.66
2018-05-08T11:25:35.656Z,26.78
2018-05-08T11:26:35.713Z,26.96
2018-05-08T11:27:35.680Z,27.00
2018-05-08T11:28:35.694Z,27.25
2018-05-08T11:29:35.705Z,27.58
2018-05-08T11:30:35.720Z,27.85
2018-05-08T11:31:35.731Z,28.16
2018-05-08T11:32:35.744Z,28.04
2018-05-08T11:33:35.757Z,28.35
2018-05-08T11:34:35.771Z,28.40
2018-05-08T11:35:35.784Z,28.12
2018-05-08T11:36:35.797Z,27.90
2018-05-08T11:37:35.811Z,27.64
2018-05-08T11:38:35.823Z,27.29
2018-05-08T11:39:35.839Z,26.70
2018-05-08T11:40:35.847Z,26.59
2018-05-08T11:41:35.862Z,26.27
2018-05-08T11:42:35.874Z,25.76
2018-05-08T11:43:35.904Z,25.62
2018-05-08T11:44:35.930Z,25.77
2018-05-08T11:45:35.912Z,25.86
2018-05-08T11:46:35.924Z,25.78
2018-05-08T11:47:35.938Z,25.89
2018-05-08T11:48:35.954Z,25.44
2018-05-08T11:49:35.963Z,25.49
2018-05-08T11:50:35.977Z,25.67
2018-05-08T11:51:35.988Z,25.80
2018-05-08T11:52:35.997Z,26.11
2018-05-08T11:53:36.009Z,26.41
2018-05-08T11:54:36.025Z,26.59
2018-05-08T11:55:36.037Z,26.66
2018-05-08T11:56:36.046Z,26.63
2018-05-08T11:57:36.057Z,26.64
2018-05-08T11:58:36.069Z,26.64
2018-05-08T11:59:36.085Z,26.71
2018-05-08T12:00:36.095Z,26.81
2018-05-08T12:01:36.105Z,26.96
2018-05-08T12:02:36.181Z,27.04
2018-05-08T12:03:36.134Z,27.34
2018-05-08T12:04:36.142Z,27.48
2018-05-08T12:05:36.152Z,27.60
2018-05-08T12:06:36.165Z,27.66
2018-05-08T12:07:36.177Z,27.64
2018-05-08T12:08:36.190Z,27.85
2018-05-08T12:09:36.201Z,27.68
2018-05-08T12:10:36.213Z,27.57
2018-05-08T12:11:36.378Z,27.48
2018-05-08T12:12:36.240Z,27.16
2018-05-08T12:13:36.250Z,27.04
2018-05-08T12:14:36.292Z,27.08
2018-05-08T12:15:36.275Z,27.11
2018-05-08T12:16:36.287Z,26.93
2018-05-08T12:17:36.297Z,27.04
2018-05-08T12:18:36.311Z,27.00
2018-05-08T12:19:36.572Z,27.15
2018-05-08T12:20:36.335Z,26.68
2018-05-08T12:21:36.345Z,26.15
2018-05-08T12:22:36.357Z,26.01
2018-05-08T12:23:36.444Z,25.98
2018-05-08T12:24:36.382Z,26.01
2018-05-08T12:25:36.451Z,26.15
2018-05-08T12:26:36.404Z,26.36
2018-05-08T12:27:36.419Z,26.41
2018-05-08T12:28:36.428Z,26.26
2018-05-08T12:29:36.438Z,26.10
2018-05-08T12:30:36.496Z,25.95
2018-05-08T12:31:36.460Z,25.99
2018-05-08T12:32:36.472Z,26.27
2018-05-08T12:33:36.482Z,26.42
2018-05-08T12:34:36.895Z,26.73
2018-05-08T12:35:36.505Z,26.98
2018-05-08T12:36:36.516Z,27.10
2018-05-08T12:37:36.604Z,27.19
2018-05-08T12:38:36.541Z,27.43
2018-05-08T12:39:36.551Z,27.22
2018-05-08T12:40:36.564Z,26.86
2018-05-08T12:41:36.647Z,26.88
2018-05-08T12:42:36.584Z,27.01
2018-05-08T12:43:36.595Z,26.96
2018-05-08T12:44:36.611Z,26.93
2018-05-08T12:45:36.620Z,26.74
2018-05-08T12:46:36.631Z,26.71
2018-05-08T12:47:36.661Z,26.23
2018-05-08T12:48:36.651Z,26.10
2018-05-08T12:49:36.661Z,26.33
2018-05-08T12:50:36.676Z,26.44
2018-05-08T12:51:36.683Z,26.70
2018-05-08T12:52:36.694Z,26.79
2018-05-08T12:53:36.705Z,27.00